createdAt,value
2023-02-07T00:01:55.008Z,14.70
2023-02-07T00:04:40.274Z,19.27
2023-02-07T00:07:26.236Z,14.18
2023-02-07T00:10:12.513Z,14.60
2023-02-07T00:12:58.565Z,19.17
2023-02-07T00:15:44.403Z,15.63
2023-02-07T00:18:30.388Z,15.55
2023-02-07T00:21:18.903Z,15.60
2023-02-07T00:24:04.778Z,13.80
2023-02-07T00:26:52.289Z,15.05
2023-02-07T00:29:37.843Z,12.27
2023-02-07T00:32:24.820Z,9.55
2023-02-07T00:35:10.826Z,12.20
2023-02-07T00:37:55.967Z,12.05
2023-02-07T00:40:41.507Z,6.20
2023-02-07T00:43:29.918Z,16.10
2023-02-07T00:46:17.372Z,11.82
2023-02-07T00:49:03.416Z,11.13
2023-02-07T00:51:48.979Z,8.70
2023-02-07T00:54:35.040Z,9.00
2023-02-07T00:57:20.916Z,11.85
2023-02-07T01:00:11.948Z,8.77
2023-02-07T01:03:14.561Z,12.52
2023-02-07T01:06:02.635Z,13.43
2023-02-07T01:08:48.696Z,8.10
2023-02-07T01:11:34.083Z,8.05
2023-02-07T01:14:19.820Z,15.80
2023-02-07T01:17:05.711Z,13.75
2023-02-07T01:19:59.121Z,12.02
2023-02-07T01:22:45.104Z,13.23
2023-02-07T01:25:31.135Z,11.55
2023-02-07T01:28:16.742Z,11.02
2023-02-07T01:31:10.118Z,13.65
2023-02-07T01:33:57.301Z,10.15
2023-02-07T01:36:43.601Z,12.75
2023-02-07T01:39:31.143Z,11.90
2023-02-07T01:42:17.954Z,9.48
2023-02-07T01:45:13.388Z,18.55
2023-02-07T01:48:02.034Z,25.05
2023-02-07T01:50:48.844Z,25.88
2023-02-07T01:53:37.208Z,26.70
2023-02-07T01:56:31.280Z,15.02
2023-02-07T01:59:18.967Z,13.40
2023-02-07T02:02:05.436Z,16.83
2023-02-07T02:04:52.282Z,13.07
2023-02-07T02:07:38.238Z,13.38
2023-02-07T02:10:27.824Z,11.23
2023-02-07T02:13:23.688Z,11.60
2023-02-07T02:16:17.443Z,8.93
2023-02-07T02:19:21.899Z,11.35
2023-02-07T02:22:24.773Z,10.55
2023-02-07T02:25:38.422Z,10.73
2023-02-07T02:29:06.726Z,9.90
2023-02-07T02:32:23.340Z,6.82
2023-02-07T02:35:22.435Z,7.45
2023-02-07T02:38:26.076Z,11.07
2023-02-07T02:41:15.866Z,10.57
2023-02-07T02:44:12.006Z,12.73
2023-02-07T02:46:59.110Z,12.38
2023-02-07T02:49:44.951Z,11.40
2023-02-07T02:52:48.550Z,11.55
2023-02-07T02:55:53.979Z,11.35
2023-02-07T02:58:43.825Z,11.98
2023-02-07T03:01:36.084Z,7.88
2023-02-07T03:04:43.754Z,13.15
2023-02-07T03:07:46.211Z,11.38
2023-02-07T03:10:40.483Z,8.57
2023-02-07T03:13:47.540Z,9.43
2023-02-07T03:16:40.091Z,7.35
2023-02-07T03:19:41.057Z,13.02
2023-02-07T03:22:28.646Z,9.05
2023-02-07T03:25:15.984Z,12.60
2023-02-07T03:28:02.429Z,13.65
2023-02-07T03:30:51.340Z,14.50
2023-02-07T03:33:37.860Z,15.93
2023-02-07T03:36:28.857Z,15.25
2023-02-07T03:39:14.273Z,13.13
2023-02-07T03:42:06.456Z,17.42
2023-02-07T03:44:54.886Z,16.02
2023-02-07T03:47:40.618Z,16.88
2023-02-07T03:50:26.228Z,16.80
2023-02-07T03:53:11.571Z,17.35
2023-02-07T03:55:57.131Z,13.23
2023-02-07T03:58:42.455Z,13.45
2023-02-07T04:01:28.290Z,13.32
2023-02-07T04:04:14.046Z,14.80
2023-02-07T04:06:59.646Z,11.88
2023-02-07T04:09:45.638Z,11.93
2023-02-07T04:12:32.846Z,19.80
2023-02-07T04:15:18.560Z,11.02
2023-02-07T04:18:04.229Z,9.98
2023-02-07T04:20:50.114Z,9.88
2023-02-07T04:23:36.066Z,16.10
2023-02-07T04:26:21.444Z,10.57
2023-02-07T04:29:08.086Z,12.90
2023-02-07T04:31:53.518Z,7.22
2023-02-07T04:34:39.308Z,15.45
2023-02-07T04:37:24.859Z,9.38
2023-02-07T04:40:10.789Z,14.25
2023-02-07T04:42:56.645Z,12.43
2023-02-07T04:45:42.382Z,9.00
2023-02-07T04:48:28.270Z,9.10
2023-02-07T04:51:14.217Z,15.07
2023-02-07T04:53:59.908Z,10.77
2023-02-07T04:56:46.037Z,15.45
2023-02-07T04:59:31.697Z,10.10
2023-02-07T05:02:17.031Z,14.50
2023-02-07T05:05:02.528Z,13.10
2023-02-07T05:07:48.228Z,13.95
2023-02-07T05:10:34.118Z,16.42
2023-02-07T05:13:19.483Z,22.15
2023-02-07T05:16:05.068Z,52.13
2023-02-07T05:18:50.956Z,33.17
2023-02-07T05:21:36.726Z,25.25
2023-02-07T05:24:22.712Z,21.13
2023-02-07T05:27:08.160Z,24.50
2023-02-07T05:29:53.547Z,14.00
2023-02-07T05:32:57.692Z,20.50
2023-02-07T05:35:44.724Z,11.07
2023-02-07T05:38:45.483Z,15.25
2023-02-07T05:41:31.577Z,7.63
2023-02-07T05:44:17.092Z,12.50
2023-02-07T05:47:03.259Z,13.40
2023-02-07T05:49:48.728Z,14.95
2023-02-07T05:52:35.776Z,10.77
2023-02-07T05:55:22.725Z,14.82
2023-02-07T05:58:08.157Z,17.70
2023-02-07T06:00:57.745Z,19.40
2023-02-07T06:03:43.647Z,13.57
2023-02-07T06:06:29.621Z,11.70
2023-02-07T06:09:15.403Z,16.48
2023-02-07T06:12:01.134Z,19.15
2023-02-07T06:14:47.315Z,20.50
2023-02-07T06:17:32.707Z,20.85
2023-02-07T06:20:18.083Z,14.60
2023-02-07T06:23:04.370Z,19.40
2023-02-07T06:25:49.655Z,15.18
2023-02-07T06:28:35.515Z,24.38
2023-02-07T06:31:21.209Z,27.05
2023-02-07T06:34:07.724Z,25.55
2023-02-07T06:36:53.262Z,26.13
2023-02-07T06:39:39.308Z,19.00
2023-02-07T06:42:24.818Z,18.42
2023-02-07T06:45:10.201Z,19.60
2023-02-07T06:47:55.647Z,25.35
2023-02-07T06:50:41.177Z,29.75
2023-02-07T06:53:26.703Z,20.77
2023-02-07T06:56:12.272Z,25.95
2023-02-07T06:58:57.430Z,16.55
2023-02-07T07:01:42.855Z,33.22
2023-02-07T07:04:28.627Z,34.50
2023-02-07T07:07:14.157Z,46.10
2023-02-07T07:09:59.659Z,24.02
2023-02-07T07:12:47.278Z,19.95
2023-02-07T07:15:33.128Z,17.42
2023-02-07T07:18:18.622Z,35.42
2023-02-07T07:21:05.073Z,31.92
2023-02-07T07:23:50.854Z,57.58
2023-02-07T07:26:48.445Z,47.38
2023-02-07T07:29:35.029Z,68.63
2023-02-07T07:32:33.310Z,37.58
2023-02-07T07:35:20.490Z,32.20
2023-02-07T07:38:06.020Z,51.50
2023-02-07T07:40:51.532Z,47.00
2023-02-07T07:43:36.782Z,77.97
2023-02-07T07:46:22.074Z,60.13
2023-02-07T07:49:08.348Z,48.72
2023-02-07T07:51:53.723Z,57.60
2023-02-07T07:54:39.455Z,70.25
2023-02-07T07:57:28.154Z,87.50
2023-02-07T08:00:14.179Z,63.58
2023-02-07T08:02:59.463Z,51.00
2023-02-07T08:05:45.289Z,47.40
2023-02-07T08:08:30.692Z,75.60
2023-02-07T08:11:16.366Z,59.25
2023-02-07T08:14:01.668Z,54.22
2023-02-07T08:16:46.961Z,57.20
2023-02-07T08:19:32.499Z,53.15
2023-02-07T08:22:17.922Z,56.05
2023-02-07T08:25:03.927Z,50.97
2023-02-07T08:27:49.770Z,43.75
2023-02-07T08:30:35.132Z,44.80
2023-02-07T08:33:20.654Z,41.03
2023-02-07T08:36:09.300Z,49.95
2023-02-07T11:45:13.839Z,41.55
2023-02-07T11:47:59.953Z,33.05
2023-02-07T11:50:49.373Z,36.90
2023-02-07T11:53:41.014Z,36.15
2023-02-07T11:56:31.537Z,29.92
2023-02-07T11:59:20.606Z,36.17
2023-02-07T12:02:31.710Z,32.15
2023-02-07T12:05:23.307Z,33.10
2023-02-07T12:08:20.476Z,29.70
2023-02-07T12:15:24.021Z,25.80
2023-02-07T12:18:31.915Z,29.98
2023-02-07T12:30:13.902Z,22.02
2023-02-07T12:33:38.129Z,19.58
2023-02-07T12:36:36.995Z,24.38
2023-02-07T12:39:38.143Z,24.40
2023-02-07T12:42:40.644Z,15.23
2023-02-07T12:45:47.094Z,26.42
2023-02-07T12:48:47.670Z,13.70
2023-02-07T12:56:35.438Z,16.33
2023-02-07T12:59:27.668Z,22.02
2023-02-07T13:02:34.813Z,19.45
2023-02-07T13:09:04.347Z,18.23
2023-02-07T13:12:08.243Z,17.27
2023-02-07T13:14:59.665Z,13.02
2023-02-07T13:17:45.090Z,21.95
2023-02-07T13:20:51.687Z,17.50
2023-02-07T13:32:34.112Z,20.33
2023-02-07T13:35:24.375Z,17.77
2023-02-07T13:38:31.651Z,19.70
2023-02-07T13:42:32.208Z,18.85
2023-02-07T13:45:50.749Z,19.30
2023-02-07T13:48:51.024Z,10.23
2023-02-07T13:52:01.296Z,9.55
2023-02-07T13:55:03.107Z,6.50
2023-02-07T13:58:07.555Z,18.10
2023-02-07T14:00:53.232Z,6.25
2023-02-07T14:03:39.219Z,14.68
2023-02-07T14:06:30.072Z,14.52
2023-02-07T14:09:15.272Z,26.23
2023-02-07T14:12:02.098Z,25.55
2023-02-07T14:15:01.464Z,25.42
2023-02-07T14:18:05.803Z,26.05
2023-02-07T14:21:00.704Z,19.08
2023-02-07T14:23:52.198Z,21.13
2023-02-07T14:26:37.956Z,17.10
2023-02-07T14:29:23.308Z,18.30
2023-02-07T14:32:15.320Z,25.95
2023-02-07T14:35:26.813Z,17.80
2023-02-07T14:38:29.231Z,16.48
2023-02-07T14:41:16.363Z,27.38
2023-02-07T14:44:09.475Z,24.58
2023-02-07T14:46:58.095Z,18.17
2023-02-07T14:52:33.041Z,19.05
2023-02-07T14:55:22.281Z,19.92
2023-02-07T14:58:12.982Z,61.00
2023-02-07T15:01:00.081Z,21.95
2023-02-07T15:03:46.047Z,19.98
2023-02-07T15:06:43.605Z,22.48
2023-02-07T15:09:29.459Z,23.30
2023-02-07T15:12:27.938Z,34.75
2023-02-07T15:15:24.649Z,41.33
2023-02-07T15:18:14.041Z,23.17
2023-02-07T15:21:00.397Z,21.35
2023-02-07T15:24:03.272Z,21.00
2023-02-07T15:26:50.492Z,22.15
2023-02-07T15:29:38.046Z,25.48
2023-02-07T15:32:25.743Z,18.60
2023-02-07T15:35:20.028Z,27.33
2023-02-07T15:38:21.712Z,26.35
2023-02-07T15:41:07.664Z,28.73
2023-02-07T15:43:59.261Z,31.73
2023-02-07T15:46:51.199Z,28.02
2023-02-07T15:49:40.798Z,26.23
2023-02-07T15:52:36.242Z,26.50
2023-02-07T15:55:33.824Z,23.20
2023-02-07T15:58:29.141Z,28.67
2023-02-07T16:01:17.154Z,23.85
2023-02-07T16:04:03.502Z,25.80
2023-02-07T16:07:05.125Z,25.55
2023-02-07T16:09:53.464Z,22.65
2023-02-07T16:15:34.844Z,18.20
2023-02-07T16:18:39.890Z,23.50
2023-02-07T16:21:27.074Z,17.15
2023-02-07T16:24:21.243Z,21.25
2023-02-07T16:27:07.539Z,20.92
2023-02-07T16:29:57.567Z,20.52
2023-02-07T16:32:47.519Z,19.00
2023-02-07T16:35:34.027Z,17.70
2023-02-07T16:38:20.481Z,18.17
2023-02-07T16:41:06.532Z,17.85
2023-02-07T16:43:52.254Z,15.35
2023-02-07T16:46:38.670Z,17.77
2023-02-07T16:49:26.514Z,18.10
2023-02-07T16:52:12.338Z,17.75
2023-02-07T16:54:58.126Z,18.42
2023-02-07T16:57:44.589Z,16.10
2023-02-07T17:00:30.131Z,36.78
2023-02-07T17:03:15.994Z,22.73
2023-02-07T17:06:01.801Z,37.20
2023-02-07T17:08:48.114Z,31.45
2023-02-07T17:11:33.457Z,18.02
2023-02-07T17:14:19.278Z,17.20
2023-02-07T17:17:04.796Z,16.55
2023-02-07T17:19:51.633Z,17.30
2023-02-07T17:22:38.028Z,15.70
2023-02-07T17:25:26.163Z,15.52
2023-02-07T17:28:15.997Z,17.00
2023-02-07T17:31:01.911Z,18.02
2023-02-07T17:33:57.123Z,17.73
2023-02-07T17:36:47.126Z,14.07
2023-02-07T17:39:32.841Z,16.80
2023-02-07T17:42:18.152Z,15.23
2023-02-07T17:45:03.988Z,14.32
2023-02-07T17:47:49.958Z,7.10
2023-02-07T17:50:40.770Z,9.95
2023-02-07T17:53:26.743Z,13.07
2023-02-07T17:56:33.152Z,13.60
2023-02-07T17:59:24.569Z,13.18
2023-02-07T18:02:10.842Z,13.80
2023-02-07T18:04:58.180Z,13.20
2023-02-07T18:07:46.219Z,12.52
2023-02-07T18:10:35.276Z,13.02
2023-02-07T18:13:21.399Z,13.18
2023-02-07T18:16:08.453Z,13.13
2023-02-07T18:18:55.649Z,12.30
2023-02-07T18:21:41.513Z,13.57
2023-02-07T18:24:26.709Z,12.57
2023-02-07T18:27:17.310Z,12.27
2023-02-07T18:30:05.111Z,10.52
2023-02-07T18:32:50.885Z,13.15
2023-02-07T18:35:36.522Z,10.73
2023-02-07T18:38:22.622Z,11.70
2023-02-07T18:41:13.444Z,11.65
2023-02-07T18:43:58.923Z,13.57
2023-02-07T18:46:44.419Z,13.43
2023-02-07T18:49:29.928Z,13.35
2023-02-07T18:52:15.905Z,12.55
2023-02-07T18:55:13.992Z,10.27
2023-02-07T18:58:32.846Z,13.68
2023-02-07T19:01:47.530Z,13.40
2023-02-07T19:04:55.196Z,13.43
2023-02-07T19:11:50.858Z,14.70
2023-02-07T19:14:52.540Z,13.55
2023-02-07T19:17:38.291Z,13.23
2023-02-07T19:20:23.959Z,6.28
2023-02-07T19:23:09.458Z,12.38
2023-02-07T19:25:55.073Z,7.88
2023-02-07T19:28:41.070Z,3.13
2023-02-07T19:31:29.338Z,14.73
2023-02-07T19:34:15.479Z,14.25
2023-02-07T19:37:02.314Z,13.15
2023-02-07T19:40:01.619Z,14.00
2023-02-07T19:42:48.031Z,7.45
2023-02-07T19:45:34.194Z,12.80
2023-02-07T19:48:21.253Z,11.60
2023-02-07T19:51:09.118Z,15.32
2023-02-07T19:53:55.505Z,11.45
2023-02-07T19:56:42.450Z,11.55
2023-02-07T19:59:28.539Z,14.65
2023-02-07T20:02:14.920Z,14.02
2023-02-07T20:05:05.892Z,14.07
2023-02-07T20:07:53.828Z,12.35
2023-02-07T20:10:46.488Z,13.73
2023-02-07T20:14:11.381Z,14.07
2023-02-07T20:16:57.094Z,14.48
2023-02-07T20:19:44.926Z,14.63
2023-02-07T20:23:00.379Z,14.35
2023-02-07T20:25:48.655Z,14.13
2023-02-07T20:33:20.145Z,13.55
2023-02-07T20:36:11.571Z,13.95
2023-02-07T20:47:32.220Z,14.05
2023-02-07T20:50:17.993Z,14.27
2023-02-07T20:53:03.854Z,13.98
2023-02-07T20:55:49.987Z,16.35
2023-02-07T20:58:36.098Z,13.50
2023-02-07T21:01:23.831Z,12.68
2023-02-07T21:04:09.583Z,13.52
2023-02-07T21:06:55.269Z,14.65
2023-02-07T21:09:41.097Z,14.73
2023-02-07T21:12:27.364Z,15.60
2023-02-07T21:15:17.070Z,13.40
2023-02-07T21:18:06.691Z,13.40
2023-02-07T21:20:58.158Z,13.13
2023-02-07T21:23:47.139Z,15.13
2023-02-07T21:26:32.752Z,12.80
2023-02-07T21:29:18.675Z,13.82
2023-02-07T21:32:04.389Z,14.73
2023-02-07T21:34:50.253Z,13.93
2023-02-07T21:37:35.901Z,14.52
2023-02-07T21:40:21.507Z,14.45
2023-02-07T21:46:42.413Z,14.25
2023-02-07T21:49:27.965Z,13.60
2023-02-07T21:52:13.634Z,14.30
2023-02-07T21:54:59.619Z,14.43
2023-02-07T21:57:45.389Z,15.95
2023-02-07T22:00:30.780Z,13.65
2023-02-07T22:03:16.725Z,13.73
2023-02-07T22:06:02.465Z,15.70
2023-02-07T22:08:53.965Z,15.35
2023-02-07T22:11:39.408Z,15.57
2023-02-07T22:14:25.901Z,17.48
2023-02-07T22:17:12.349Z,30.52
2023-02-07T22:19:57.994Z,35.33
2023-02-07T22:22:43.362Z,52.03
2023-02-07T22:25:29.574Z,45.95
2023-02-07T22:28:15.048Z,45.47
2023-02-07T22:31:01.379Z,40.55
2023-02-07T22:33:48.533Z,38.58
2023-02-07T22:36:35.627Z,39.03
2023-02-07T22:39:21.149Z,44.72
2023-02-07T22:42:06.759Z,44.78
2023-02-07T22:44:52.125Z,44.55
2023-02-07T22:47:37.598Z,50.67
2023-02-07T22:50:23.138Z,45.83
2023-02-07T22:53:11.512Z,40.53
2023-02-07T22:58:45.921Z,37.42
2023-02-07T23:01:34.431Z,29.90
2023-02-07T23:04:21.648Z,21.75
2023-02-07T23:07:07.542Z,17.73
2023-02-07T23:09:54.188Z,20.08
2023-02-07T23:12:39.717Z,19.23
2023-02-07T23:15:26.810Z,17.88
2023-02-07T23:18:13.109Z,18.55
2023-02-07T23:20:58.862Z,18.27
2023-02-07T23:23:44.921Z,19.67
2023-02-07T23:26:30.558Z,22.45
2023-02-07T23:29:16.300Z,21.90
2023-02-07T23:32:02.013Z,22.45
2023-02-07T23:34:47.372Z,21.83
2023-02-07T23:37:32.976Z,18.48
2023-02-07T23:40:18.813Z,18.95
2023-02-07T23:43:04.820Z,19.63
2023-02-07T23:45:50.796Z,18.60
2023-02-07T23:48:38.517Z,15.95
2023-02-07T23:51:25.507Z,16.23
2023-02-07T23:54:12.131Z,18.75
2023-02-07T23:56:57.446Z,18.40
2023-02-07T23:59:43.258Z,17.23
